Pagrindinis puslapis
METAR-TAF:

METAR-TAF

Oro uostai :

Al Khardj, Saudo Arabija

platuma: 24-03-19N, ilguma: 047-33-49E, Aukštis: 503 m

Dabartinis oras

Ataskaita buvo paskelbta 15 minutes, ne 13:00 UTC
Vėjas 8 kt iš Šiaurės/Šiaurės Vakarų
Temperatūra 46°C
Drėgmė 7%
Slėgis 1002 hPa
Matomumas 10 km arba daugiau
nėra debesų žemiau 1500 m ir nėra kamuolinių lietaus debesų

METAR: OEKJ 221300Z 34008KT CAVOK 46/01 Q1002

Laikas: 16:15 (13:15 UTC)

Prognozė

Ataskaita buvo paskelbta 2 valandos ir 15 minutes, ne 11:00 UTC
Prognozė galioja nuo 22 metu 12 UTC su 23 metu 18 UTC
Vėjas 10 kt iš Šiaurės
Matomumas 10 km arba daugiau
nėra debesų žemiau 1500 m ir nėra kamuolinių lietaus debesų
Tapsmas
nuo 22 metu 18 UTC su 22 metu 20 UTC
Vėjas 3 kt nuo kintamojo kryptimis
Tapsmas
nuo 23 metu 06 UTC su 23 metu 08 UTC
Vėjas 10 kt iš Šiaurės

TAF: OEKJ 221100Z 2212/2318 36010KT CAVOK BECMG 2218/2220 VRB03KT BECMG 2306/2308 36010KT

Orai ataskaitas ir orų prognozės (METAR, TAF).

turimą stotys yra geltonos ir raudonos taškus žemėlapyje.

Perkelti pele per norėdami pamatyti stoties vardą.

Tada spustelėkite, norėdami matyti oro stebėjimo ir prognozės.

Norėdami pakeisti žemėlapį: spustelėkite ant žalios mygtukų su juodo kryžiaus žemyn,; žalią mygtuką su brūkšneliu, jei norite nutolinti; arba žalių rodyklių gretimoms žemėlapius.


METAR-TAF: